Time;durP1;ratioP1;P1;durP2;ratioP2;P2;SDS_P1;SDS_P2;PMS_P1;PMS_P2;Temp;Humidity;BMP_temperature;BMP_pressure;BME280_temperature;BME280_humidity;BME280_pressure;Samples;Min_cycle;Max_cycle;Signal;HPM_P1;HPM_P2
2021/10/18 15:26:09;;;;;;;;;;;9.50;79.70;;;;;;5110826;27;19916;-93
2021/10/18 15:28:35;;;;;;;;;;;9.40;81.70;;;;;;5140942;27;19916;-92
2021/10/18 15:31:01;;;;;;;;;;;9.40;83.20;;;;;;5111229;28;19966;-90
2021/10/18 15:33:27;;;;;;;;;;;9.50;84.20;;;;;;5111105;28;20357;-90
2021/10/18 15:35:52;;;;;;;;;;;9.60;84.80;;;;;;5113272;28;19937;-92
2021/10/18 15:38:18;;;;;;;;;;;9.70;85.40;;;;;;5107214;28;20249;-92
2021/10/18 15:40:44;;;;;;;;;;;9.70;85.60;;;;;;5112182;28;20389;-94
2021/10/18 15:43:09;;;;;;;;;;;9.80;85.60;;;;;;5110391;28;19915;-95
2021/10/18 15:45:35;;;;;;;;;;;9.90;85.60;;;;;;5110437;28;19920;-91
2021/10/18 15:48:01;;;;;;;;;;;10.00;85.60;;;;;;5108807;28;19912;-92
2021/10/18 15:50:27;;;;;;;;;;;10.00;85.50;;;;;;5106327;28;19919;-95
2021/10/18 15:52:52;;;;;;;;;;;10.10;85.40;;;;;;5109758;28;20261;-91
2021/10/18 15:55:18;;;;;;;;;;;10.10;85.10;;;;;;5107424;28;20249;-92
2021/10/18 15:57:44;;;;;;;;;;;10.20;84.80;;;;;;5105649;28;19912;-92
2021/10/18 16:00:10;;;;;;;;;;;10.20;84.60;;;;;;5111945;28;20674;-92
2021/10/18 16:02:35;;;;;;;;;;;10.20;84.50;;;;;;5110470;28;19965;-92
2021/10/18 16:05:01;;;;;;;;;;;10.20;84.20;;;;;;5112931;28;20449;-93
2021/10/18 16:07:27;;;;;;;;;;;10.20;84.20;;;;;;5110524;27;19912;-91
2021/10/18 16:09:52;;;;;;;;;;;10.20;84.10;;;;;;5110430;28;20390;-88
2021/10/18 16:12:18;;;;;;;;;;;10.30;84.10;;;;;;5108046;28;19912;-91
2021/10/18 16:14:43;;;;;;;;;;;10.20;83.90;;;;;;5109257;28;20296;-91
2021/10/18 16:17:10;;;;;;;;;;;10.20;83.90;;;;;;5109110;28;19920;-89
2021/10/18 16:19:36;;;;;;;;;;;10.20;83.80;;;;;;5108440;28;19962;-92
2021/10/18 16:22:02;;;;;;;;;;;10.20;83.80;;;;;;5110573;28;19915;-91
2021/10/18 16:24:28;;;;;;;;;;;10.20;83.80;;;;;;5109748;28;19924;-90
2021/10/18 16:26:53;;;;;;;;;;;10.20;83.70;;;;;;5108162;28;19912;-93
2021/10/18 16:29:20;;;;;;;;;;;10.20;83.60;;;;;;5107981;28;19975;-92
2021/10/18 16:31:46;;;;;;;;;;;10.10;83.50;;;;;;5108239;28;20015;-93
2021/10/18 16:34:12;;;;;;;;;;;10.10;83.50;;;;;;5106859;28;20420;-90
2021/10/18 16:36:41;;;;;;;;;;;10.10;83.40;;;;;;5089999;28;19960;-87
2021/10/18 16:39:07;;;;;;;;;;;10.10;83.40;;;;;;5090179;28;20407;-89
2021/10/18 16:41:32;;;;;;;;;;;10.10;83.30;;;;;;5087766;28;20315;-87
2021/10/18 16:44:00;;;;;;;;;;;10.00;83.20;;;;;;5088434;28;20368;-88
2021/10/18 16:46:26;;;;;;;;;;;10.00;83.20;;;;;;5083723;28;19913;-91
2021/10/18 16:48:51;;;;;;;;;;;10.00;83.20;;;;;;5088546;28;19912;-91
2021/10/18 16:51:17;;;;;;;;;;;10.00;83.30;;;;;;5088556;28;20371;-88
2021/10/18 16:53:43;;;;;;;;;;;9.90;83.20;;;;;;5082431;28;19916;-91
2021/10/18 16:56:08;;;;;;;;;;;9.90;83.00;;;;;;5078653;28;19920;-91
2021/10/18 16:58:34;;;;;;;;;;;9.90;83.20;;;;;;5080464;28;19919;-92
2021/10/18 17:00:59;;;;;;;;;;;9.90;83.20;;;;;;5112779;27;19994;-90
2021/10/18 17:03:25;;;;;;;;;;;9.80;83.00;;;;;;5086184;28;19920;-89
2021/10/18 17:05:53;;;;;;;;;;;9.80;83.00;;;;;;5081536;28;20360;-88
2021/10/18 17:08:19;;;;;;;;;;;9.70;83.10;;;;;;5096372;28;19908;-89
2021/10/18 17:10:44;;;;;;;;;;;9.70;83.10;;;;;;5078968;28;20276;-88
2021/10/18 17:13:10;;;;;;;;;;;9.60;83.10;;;;;;5083457;28;20007;-87
2021/10/18 17:15:36;;;;;;;;;;;9.60;83.10;;;;;;5080838;28;20357;-92
2021/10/18 17:18:01;;;;;;;;;;;9.50;83.10;;;;;;5076076;28;20007;-91
2021/10/18 17:20:27;;;;;;;;;;;9.40;83.10;;;;;;5076063;28;19916;-90
2021/10/18 17:22:53;;;;;;;;;;;9.40;83.10;;;;;;5084966;28;20010;-93
2021/10/18 17:25:18;;;;;;;;;;;9.30;83.10;;;;;;5080687;28;19932;-91
2021/10/18 17:27:44;;;;;;;;;;;9.20;83.10;;;;;;5083770;28;19952;-88
2021/10/18 17:30:11;;;;;;;;;;;9.20;83.20;;;;;;5084474;28;20363;-95
2021/10/18 17:32:37;;;;;;;;;;;9.10;83.30;;;;;;5089803;28;19919;-92
2021/10/18 17:35:04;;;;;;;;;;;9.00;83.40;;;;;;5083873;28;19913;-93
2021/10/18 17:37:29;;;;;;;;;;;9.00;83.50;;;;;;5081338;28;20045;-94
2021/10/18 17:39:55;;;;;;;;;;;8.90;83.60;;;;;;5097078;28;19973;-95
2021/10/18 17:42:20;;;;;;;;;;;8.90;83.60;;;;;;5086209;28;20061;-92
2021/10/18 17:44:46;;;;;;;;;;;8.80;83.60;;;;;;5116866;27;19916;-91
2021/10/18 17:47:12;;;;;;;;;;;8.80;83.70;;;;;;5084604;28;19921;-94
2021/10/18 17:49:39;;;;;;;;;;;8.80;83.80;;;;;;5074293;28;19951;-90
2021/10/18 17:52:06;;;;;;;;;;;8.70;83.80;;;;;;5077339;28;19920;-93
2021/10/18 17:54:31;;;;;;;;;;;8.70;83.90;;;;;;5081953;28;19912;-95
2021/10/18 17:56:57;;;;;;;;;;;8.70;84.00;;;;;;5077780;28;20275;-95
2021/10/18 17:59:22;;;;;;;;;;;8.60;84.70;;;;;;5114331;27;19913;-95
2021/10/18 18:01:49;;;;;;;;;;;8.60;84.30;;;;;;5086691;28;20269;-88
2021/10/18 18:04:15;;;;;;;;;;;8.50;84.30;;;;;;5085552;28;19966;-87
2021/10/18 18:06:40;;;;;;;;;;;8.50;84.50;;;;;;5084898;28;19943;-89
2021/10/18 18:09:06;;;;;;;;;;;8.50;84.60;;;;;;5090294;28;20435;-87
2021/10/18 18:11:32;;;;;;;;;;;8.40;84.70;;;;;;5089763;28;19912;-87
2021/10/18 18:13:58;;;;;;;;;;;8.40;84.90;;;;;;5082804;28;19961;-89
2021/10/18 18:16:23;;;;;;;;;;;8.40;85.10;;;;;;5088622;28;20365;-89
2021/10/18 18:18:49;;;;;;;;;;;8.30;85.20;;;;;;5093098;28;19908;-94
2021/10/18 18:21:18;;;;;;;;;;;8.20;85.30;;;;;;5082492;28;19912;-95
2021/10/18 18:23:43;;;;;;;;;;;8.20;85.60;;;;;;5080689;28;19919;-94
2021/10/18 18:26:09;;;;;;;;;;;8.10;85.60;;;;;;5090298;28;19920;-95
2021/10/18 18:28:35;;;;;;;;;;;8.10;85.90;;;;;;5080873;28;20380;-94
2021/10/18 18:31:03;;;;;;;;;;;8.10;86.20;;;;;;5083685;28;19958;-94
2021/10/18 18:33:32;;;;;;;;;;;8.00;86.40;;;;;;5089342;28;19921;-87
2021/10/18 18:35:59;;;;;;;;;;;8.00;86.70;;;;;;5079822;28;19912;-90
2021/10/18 18:38:25;;;;;;;;;;;8.00;87.00;;;;;;5116704;27;20006;-90
2021/10/18 18:40:51;;;;;;;;;;;7.90;87.00;;;;;;5079576;28;19947;-88
2021/10/18 18:43:17;;;;;;;;;;;7.90;87.20;;;;;;5082177;28;19919;-88
2021/10/18 18:45:42;;;;;;;;;;;7.80;87.30;;;;;;5084572;28;19916;-88
2021/10/18 18:48:08;;;;;;;;;;;7.80;87.60;;;;;;5083972;28;20010;-87
2021/10/18 18:50:33;;;;;;;;;;;7.70;87.90;;;;;;5094475;28;19912;-90
2021/10/18 19:35:50;;;;;;;;;;;6.30;86.00;;;;;;5108958;27;19916;-87
2021/10/18 19:38:15;;;;;;;;;;;6.20;86.70;;;;;;5123954;28;20344;-88
2021/10/18 19:40:41;;;;;;;;;;;6.20;88.70;;;;;;5078387;28;19918;-89
2021/10/18 19:43:07;;;;;;;;;;;6.20;90.10;;;;;;5084483;28;19951;-89
